sensor_id;sensor_type;location;lat;lon;timestamp;temperature;humidity
75217;HTU21D;63800;51.972;5.682;2022-11-15T00:01:44;6.39;93.64
75217;HTU21D;63800;51.972;5.682;2022-11-15T00:04:10;6.38;94.46
75217;HTU21D;63800;51.972;5.682;2022-11-15T00:06:35;6.45;94.33
75217;HTU21D;63800;51.972;5.682;2022-11-15T00:09:01;6.44;93.92
75217;HTU21D;63800;51.972;5.682;2022-11-15T00:11:27;6.65;93.53
75217;HTU21D;63800;51.972;5.682;2022-11-15T00:13:57;6.63;93.64
75217;HTU21D;63800;51.972;5.682;2022-11-15T00:16:23;6.59;93.46
75217;HTU21D;63800;51.972;5.682;2022-11-15T00:18:49;6.53;94.21
75217;HTU21D;63800;51.972;5.682;2022-11-15T00:21:15;6.56;94.27
75217;HTU21D;63800;51.972;5.682;2022-11-15T00:23:40;6.56;94.21
75217;HTU21D;63800;51.972;5.682;2022-11-15T00:26:06;6.60;93.51
75217;HTU21D;63800;51.972;5.682;2022-11-15T00:28:32;6.64;93.91
75217;HTU21D;63800;51.972;5.682;2022-11-15T00:31:01;6.66;93.81
75217;HTU21D;63800;51.972;5.682;2022-11-15T00:33:27;6.70;94.20
75217;HTU21D;63800;51.972;5.682;2022-11-15T00:35:53;6.73;93.92
75217;HTU21D;63800;51.972;5.682;2022-11-15T00:38:18;6.78;93.75
75217;HTU21D;63800;51.972;5.682;2022-11-15T00:40:43;6.81;93.70
75217;HTU21D;63800;51.972;5.682;2022-11-15T00:43:09;6.80;93.89
75217;HTU21D;63800;51.972;5.682;2022-11-15T00:45:34;6.96;93.15
75217;HTU21D;63800;51.972;5.682;2022-11-15T00:48:00;6.89;93.44
75217;HTU21D;63800;51.972;5.682;2022-11-15T00:50:25;6.97;92.92
75217;HTU21D;63800;51.972;5.682;2022-11-15T00:52:50;7.01;92.94
75217;HTU21D;63800;51.972;5.682;2022-11-15T00:55:17;6.91;93.67
75217;HTU21D;63800;51.972;5.682;2022-11-15T00:57:42;6.90;93.98
75217;HTU21D;63800;51.972;5.682;2022-11-15T01:00:09;6.96;93.17
75217;HTU21D;63800;51.972;5.682;2022-11-15T01:02:34;6.95;93.83
75217;HTU21D;63800;51.972;5.682;2022-11-15T01:05:00;6.99;93.57
75217;HTU21D;63800;51.972;5.682;2022-11-15T01:07:25;7.00;93.37
75217;HTU21D;63800;51.972;5.682;2022-11-15T01:09:51;7.02;93.78
75217;HTU21D;63800;51.972;5.682;2022-11-15T01:12:16;7.02;93.54
75217;HTU21D;63800;51.972;5.682;2022-11-15T01:14:41;7.04;93.36
75217;HTU21D;63800;51.972;5.682;2022-11-15T01:17:07;7.00;94.44
75217;HTU21D;63800;51.972;5.682;2022-11-15T01:19:32;7.01;94.01
75217;HTU21D;63800;51.972;5.682;2022-11-15T01:21:58;7.02;93.70
75217;HTU21D;63800;51.972;5.682;2022-11-15T01:24:23;7.02;94.20
75217;HTU21D;63800;51.972;5.682;2022-11-15T01:26:49;7.11;94.52
75217;HTU21D;63800;51.972;5.682;2022-11-15T01:29:14;7.08;94.84
75217;HTU21D;63800;51.972;5.682;2022-11-15T01:31:40;7.19;94.23
75217;HTU21D;63800;51.972;5.682;2022-11-15T01:34:05;7.26;93.79
75217;HTU21D;63800;51.972;5.682;2022-11-15T01:36:30;7.33;93.49
75217;HTU21D;63800;51.972;5.682;2022-11-15T01:38:57;7.38;93.57
75217;HTU21D;63800;51.972;5.682;2022-11-15T01:41:33;7.29;94.25
75217;HTU21D;63800;51.972;5.682;2022-11-15T01:47:04;7.34;93.86
75217;HTU21D;63800;51.972;5.682;2022-11-15T01:49:33;7.33;94.75
75217;HTU21D;63800;51.972;5.682;2022-11-15T01:52:02;7.33;93.78
75217;HTU21D;63800;51.972;5.682;2022-11-15T01:54:29;7.38;94.57
75217;HTU21D;63800;51.972;5.682;2022-11-15T01:57:05;7.42;94.49
75217;HTU21D;63800;51.972;5.682;2022-11-15T01:59:32;7.47;94.42
75217;HTU21D;63800;51.972;5.682;2022-11-15T02:01:58;7.50;93.71
75217;HTU21D;63800;51.972;5.682;2022-11-15T02:04:31;7.57;93.46
75217;HTU21D;63800;51.972;5.682;2022-11-15T02:06:58;7.49;94.51
75217;HTU21D;63800;51.972;5.682;2022-11-15T02:09:23;7.47;94.40
75217;HTU21D;63800;51.972;5.682;2022-11-15T02:11:50;7.45;95.26
75217;HTU21D;63800;51.972;5.682;2022-11-15T02:14:17;7.56;93.53
75217;HTU21D;63800;51.972;5.682;2022-11-15T02:17:08;7.54;95.30
75217;HTU21D;63800;51.972;5.682;2022-11-15T02:28:44;7.73;95.97
75217;HTU21D;63800;51.972;5.682;2022-11-15T02:31:28;7.78;95.82
75217;HTU21D;63800;51.972;5.682;2022-11-15T02:34:04;7.75;95.51
75217;HTU21D;63800;51.972;5.682;2022-11-15T02:36:43;7.75;95.84
75217;HTU21D;63800;51.972;5.682;2022-11-15T02:39:27;7.85;95.32
75217;HTU21D;63800;51.972;5.682;2022-11-15T02:41:57;7.87;95.11
75217;HTU21D;63800;51.972;5.682;2022-11-15T02:44:37;7.86;95.19
75217;HTU21D;63800;51.972;5.682;2022-11-15T02:47:06;7.89;95.52
75217;HTU21D;63800;51.972;5.682;2022-11-15T02:49:52;7.88;96.20
75217;HTU21D;63800;51.972;5.682;2022-11-15T02:52:20;7.94;95.27
75217;HTU21D;63800;51.972;5.682;2022-11-15T02:54:57;7.93;95.39
75217;HTU21D;63800;51.972;5.682;2022-11-15T02:57:51;8.00;96.84
75217;HTU21D;63800;51.972;5.682;2022-11-15T03:00:19;7.98;96.45
75217;HTU21D;63800;51.972;5.682;2022-11-15T03:05:31;8.01;95.98
75217;HTU21D;63800;51.972;5.682;2022-11-15T03:08:26;8.00;96.52
75217;HTU21D;63800;51.972;5.682;2022-11-15T03:11:12;8.06;95.75
75217;HTU21D;63800;51.972;5.682;2022-11-15T03:13:51;8.16;95.23
75217;HTU21D;63800;51.972;5.682;2022-11-15T03:16:37;8.16;95.86
75217;HTU21D;63800;51.972;5.682;2022-11-15T03:21:52;8.13;95.52
75217;HTU21D;63800;51.972;5.682;2022-11-15T03:24:19;8.14;95.92
75217;HTU21D;63800;51.972;5.682;2022-11-15T03:26:48;8.26;95.42
75217;HTU21D;63800;51.972;5.682;2022-11-15T03:29:21;8.24;95.86
75217;HTU21D;63800;51.972;5.682;2022-11-15T03:31:52;8.21;95.98
75217;HTU21D;63800;51.972;5.682;2022-11-15T03:34:20;8.29;95.84
75217;HTU21D;63800;51.972;5.682;2022-11-15T03:36:49;8.31;96.15
75217;HTU21D;63800;51.972;5.682;2022-11-15T03:39:16;8.32;96.66
75217;HTU21D;63800;51.972;5.682;2022-11-15T03:42:08;8.42;96.62
75217;HTU21D;63800;51.972;5.682;2022-11-15T03:44:52;8.51;97.33
75217;HTU21D;63800;51.972;5.682;2022-11-15T03:47:34;8.53;97.45
75217;HTU21D;63800;51.972;5.682;2022-11-15T03:50:08;8.73;97.51
75217;HTU21D;63800;51.972;5.682;2022-11-15T03:52:35;8.67;97.26
75217;HTU21D;63800;51.972;5.682;2022-11-15T03:55:03;8.72;96.82
75217;HTU21D;63800;51.972;5.682;2022-11-15T03:57:29;8.76;97.36
75217;HTU21D;63800;51.972;5.682;2022-11-15T03:59:55;9.01;97.16
75217;HTU21D;63800;51.972;5.682;2022-11-15T04:02:20;9.03;97.33
75217;HTU21D;63800;51.972;5.682;2022-11-15T04:04:45;9.05;96.68
75217;HTU21D;63800;51.972;5.682;2022-11-15T04:07:11;9.19;97.11
75217;HTU21D;63800;51.972;5.682;2022-11-15T04:09:37;9.15;96.88
75217;HTU21D;63800;51.972;5.682;2022-11-15T04:12:21;9.18;96.81
75217;HTU21D;63800;51.972;5.682;2022-11-15T04:15:09;9.26;97.16
75217;HTU21D;63800;51.972;5.682;2022-11-15T04:17:40;9.20;97.04
75217;HTU21D;63800;51.972;5.682;2022-11-15T04:20:12;9.18;97.00
75217;HTU21D;63800;51.972;5.682;2022-11-15T04:22:57;9.33;97.04
75217;HTU21D;63800;51.972;5.682;2022-11-15T04:25:43;9.30;96.84
75217;HTU21D;63800;51.972;5.682;2022-11-15T04:28:09;9.25;96.94
75217;HTU21D;63800;51.972;5.682;2022-11-15T04:30:34;9.18;96.71
75217;HTU21D;63800;51.972;5.682;2022-11-15T04:33:00;9.17;97.52
75217;HTU21D;63800;51.972;5.682;2022-11-15T04:35:26;9.21;97.55
75217;HTU21D;63800;51.972;5.682;2022-11-15T04:37:51;9.20;96.99
75217;HTU21D;63800;51.972;5.682;2022-11-15T04:40:16;9.26;97.58
75217;HTU21D;63800;51.972;5.682;2022-11-15T04:42:42;9.23;97.43
75217;HTU21D;63800;51.972;5.682;2022-11-15T04:45:08;9.27;97.74
75217;HTU21D;63800;51.972;5.682;2022-11-15T04:47:34;9.37;97.68
75217;HTU21D;63800;51.972;5.682;2022-11-15T04:49:59;9.29;97.41
75217;HTU21D;63800;51.972;5.682;2022-11-15T04:52:24;9.25;97.76
75217;HTU21D;63800;51.972;5.682;2022-11-15T04:54:50;9.37;97.13
75217;HTU21D;63800;51.972;5.682;2022-11-15T04:57:15;9.33;97.48
75217;HTU21D;63800;51.972;5.682;2022-11-15T04:59:41;9.39;97.62
75217;HTU21D;63800;51.972;5.682;2022-11-15T05:02:06;9.47;97.45
75217;HTU21D;63800;51.972;5.682;2022-11-15T05:04:32;9.44;97.16
75217;HTU21D;63800;51.972;5.682;2022-11-15T05:06:57;9.44;97.19
75217;HTU21D;63800;51.972;5.682;2022-11-15T05:09:22;9.53;96.83
75217;HTU21D;63800;51.972;5.682;2022-11-15T05:11:48;9.48;97.21
75217;HTU21D;63800;51.972;5.682;2022-11-15T05:14:14;9.51;97.01
75217;HTU21D;63800;51.972;5.682;2022-11-15T05:16:39;9.46;96.87
75217;HTU21D;63800;51.972;5.682;2022-11-15T05:19:06;9.41;96.74
75217;HTU21D;63800;51.972;5.682;2022-11-15T05:21:31;9.59;97.35
75217;HTU21D;63800;51.972;5.682;2022-11-15T05:23:57;9.54;97.18
75217;HTU21D;63800;51.972;5.682;2022-11-15T05:26:23;9.52;97.39
75217;HTU21D;63800;51.972;5.682;2022-11-15T05:28:52;9.49;97.72
75217;HTU21D;63800;51.972;5.682;2022-11-15T05:31:19;9.50;97.87
75217;HTU21D;63800;51.972;5.682;2022-11-15T05:33:44;9.63;97.63
75217;HTU21D;63800;51.972;5.682;2022-11-15T05:36:31;9.61;97.54
75217;HTU21D;63800;51.972;5.682;2022-11-15T05:38:56;9.59;97.21
75217;HTU21D;63800;51.972;5.682;2022-11-15T05:41:27;9.69;97.41
75217;HTU21D;63800;51.972;5.682;2022-11-15T05:43:55;9.71;97.23
75217;HTU21D;63800;51.972;5.682;2022-11-15T05:46:21;9.78;97.28
75217;HTU21D;63800;51.972;5.682;2022-11-15T05:48:48;9.70;97.23
75217;HTU21D;63800;51.972;5.682;2022-11-15T05:51:16;9.63;97.31
75217;HTU21D;63800;51.972;5.682;2022-11-15T05:53:43;9.70;97.71
75217;HTU21D;63800;51.972;5.682;2022-11-15T05:56:09;9.68;97.73
75217;HTU21D;63800;51.972;5.682;2022-11-15T05:58:36;9.75;97.59
75217;HTU21D;63800;51.972;5.682;2022-11-15T06:01:02;9.78;97.22
75217;HTU21D;63800;51.972;5.682;2022-11-15T06:03:28;9.82;97.55
75217;HTU21D;63800;51.972;5.682;2022-11-15T06:05:53;9.98;96.87
75217;HTU21D;63800;51.972;5.682;2022-11-15T06:08:19;9.94;96.83
75217;HTU21D;63800;51.972;5.682;2022-11-15T06:10:44;9.93;97.26
75217;HTU21D;63800;51.972;5.682;2022-11-15T06:13:09;9.86;97.25
75217;HTU21D;63800;51.972;5.682;2022-11-15T06:15:35;9.90;97.37
75217;HTU21D;63800;51.972;5.682;2022-11-15T06:18:00;9.86;97.28
75217;HTU21D;63800;51.972;5.682;2022-11-15T06:20:27;9.82;97.07
75217;HTU21D;63800;51.972;5.682;2022-11-15T06:22:57;9.84;97.36
75217;HTU21D;63800;51.972;5.682;2022-11-15T06:25:23;9.83;97.45
75217;HTU21D;63800;51.972;5.682;2022-11-15T06:27:53;9.81;97.90
75217;HTU21D;63800;51.972;5.682;2022-11-15T06:30:19;9.78;97.63
75217;HTU21D;63800;51.972;5.682;2022-11-15T06:32:44;9.77;97.69
75217;HTU21D;63800;51.972;5.682;2022-11-15T06:35:10;9.82;97.65
75217;HTU21D;63800;51.972;5.682;2022-11-15T06:37:35;9.78;98.01
75217;HTU21D;63800;51.972;5.682;2022-11-15T06:40:01;9.78;97.94
75217;HTU21D;63800;51.972;5.682;2022-11-15T06:42:26;9.82;98.28
75217;HTU21D;63800;51.972;5.682;2022-11-15T06:44:51;9.82;97.98
75217;HTU21D;63800;51.972;5.682;2022-11-15T06:47:17;9.93;97.96
75217;HTU21D;63800;51.972;5.682;2022-11-15T06:49:42;9.89;97.81
75217;HTU21D;63800;51.972;5.682;2022-11-15T06:52:08;9.95;97.58
75217;HTU21D;63800;51.972;5.682;2022-11-15T06:54:33;9.91;97.54
75217;HTU21D;63800;51.972;5.682;2022-11-15T06:56:58;9.98;97.19
75217;HTU21D;63800;51.972;5.682;2022-11-15T06:59:24;9.98;97.45
75217;HTU21D;63800;51.972;5.682;2022-11-15T07:01:49;9.98;97.55
75217;HTU21D;63800;51.972;5.682;2022-11-15T07:04:15;9.95;97.74
75217;HTU21D;63800;51.972;5.682;2022-11-15T07:06:40;9.92;97.40
75217;HTU21D;63800;51.972;5.682;2022-11-15T07:09:05;9.99;97.61
75217;HTU21D;63800;51.972;5.682;2022-11-15T07:11:32;10.01;97.61
75217;HTU21D;63800;51.972;5.682;2022-11-15T07:13:59;9.95;97.59
75217;HTU21D;63800;51.972;5.682;2022-11-15T07:16:25;9.94;97.45
75217;HTU21D;63800;51.972;5.682;2022-11-15T07:18:50;9.93;97.22
75217;HTU21D;63800;51.972;5.682;2022-11-15T07:21:15;9.92;97.95
75217;HTU21D;63800;51.972;5.682;2022-11-15T07:23:41;9.92;97.87
75217;HTU21D;63800;51.972;5.682;2022-11-15T07:26:07;9.92;98.05
75217;HTU21D;63800;51.972;5.682;2022-11-15T07:28:33;9.93;98.16
75217;HTU21D;63800;51.972;5.682;2022-11-15T07:31:04;9.91;98.32
75217;HTU21D;63800;51.972;5.682;2022-11-15T07:33:31;9.91;98.11
75217;HTU21D;63800;51.972;5.682;2022-11-15T07:36:04;9.93;97.81
75217;HTU21D;63800;51.972;5.682;2022-11-15T07:38:30;9.97;98.16
75217;HTU21D;63800;51.972;5.682;2022-11-15T07:41:01;9.93;97.77
75217;HTU21D;63800;51.972;5.682;2022-11-15T07:43:27;9.98;97.85
75217;HTU21D;63800;51.972;5.682;2022-11-15T07:45:53;9.95;97.74
75217;HTU21D;63800;51.972;5.682;2022-11-15T07:48:19;9.97;97.93
75217;HTU21D;63800;51.972;5.682;2022-11-15T07:50:44;9.98;97.73
75217;HTU21D;63800;51.972;5.682;2022-11-15T07:53:10;9.98;97.77
75217;HTU21D;63800;51.972;5.682;2022-11-15T07:55:35;10.03;97.52
75217;HTU21D;63800;51.972;5.682;2022-11-15T07:58:06;10.04;97.51
75217;HTU21D;63800;51.972;5.682;2022-11-15T08:00:32;10.00;97.80
75217;HTU21D;63800;51.972;5.682;2022-11-15T08:03:04;10.01;97.58
75217;HTU21D;63800;51.972;5.682;2022-11-15T08:05:30;10.10;97.16
75217;HTU21D;63800;51.972;5.682;2022-11-15T08:07:56;10.06;97.36
75217;HTU21D;63800;51.972;5.682;2022-11-15T08:10:21;10.01;97.58
75217;HTU21D;63800;51.972;5.682;2022-11-15T08:12:47;10.05;97.36
75217;HTU21D;63800;51.972;5.682;2022-11-15T08:15:12;10.06;97.29
75217;HTU21D;63800;51.972;5.682;2022-11-15T08:17:38;10.08;97.07
75217;HTU21D;63800;51.972;5.682;2022-11-15T08:20:03;10.08;97.17
75217;HTU21D;63800;51.972;5.682;2022-11-15T08:22:29;10.08;96.78
75217;HTU21D;63800;51.972;5.682;2022-11-15T08:24:55;10.12;97.09
75217;HTU21D;63800;51.972;5.682;2022-11-15T08:27:20;10.18;96.50
75217;HTU21D;63800;51.972;5.682;2022-11-15T08:29:48;10.15;96.22
75217;HTU21D;63800;51.972;5.682;2022-11-15T08:32:13;10.16;96.63
75217;HTU21D;63800;51.972;5.682;2022-11-15T08:34:39;10.18;96.50
75217;HTU21D;63800;51.972;5.682;2022-11-15T08:37:04;10.18;96.56
75217;HTU21D;63800;51.972;5.682;2022-11-15T08:39:30;10.22;96.53
75217;HTU21D;63800;51.972;5.682;2022-11-15T08:41:55;10.27;96.30
75217;HTU21D;63800;51.972;5.682;2022-11-15T08:44:21;10.29;96.39
75217;HTU21D;63800;51.972;5.682;2022-11-15T08:46:46;10.27;96.06
75217;HTU21D;63800;51.972;5.682;2022-11-15T08:49:12;10.28;96.31
75217;HTU21D;63800;51.972;5.682;2022-11-15T08:51:37;10.26;96.39
75217;HTU21D;63800;51.972;5.682;2022-11-15T08:54:03;10.25;96.36
75217;HTU21D;63800;51.972;5.682;2022-11-15T08:56:28;10.25;95.84
75217;HTU21D;63800;51.972;5.682;2022-11-15T08:58:53;10.26;95.89
75217;HTU21D;63800;51.972;5.682;2022-11-15T09:01:20;10.27;96.05
75217;HTU21D;63800;51.972;5.682;2022-11-15T09:03:46;10.25;96.01
75217;HTU21D;63800;51.972;5.682;2022-11-15T09:06:11;10.31;95.46
75217;HTU21D;63800;51.972;5.682;2022-11-15T09:08:37;10.33;95.70
75217;HTU21D;63800;51.972;5.682;2022-11-15T09:11:04;10.29;95.89
75217;HTU21D;63800;51.972;5.682;2022-11-15T09:13:30;10.31;95.73
75217;HTU21D;63800;51.972;5.682;2022-11-15T09:15:59;10.35;95.68
75217;HTU21D;63800;51.972;5.682;2022-11-15T09:18:25;10.42;95.46
75217;HTU21D;63800;51.972;5.682;2022-11-15T09:20:51;10.42;94.19
75217;HTU21D;63800;51.972;5.682;2022-11-15T09:23:19;10.49;93.21
75217;HTU21D;63800;51.972;5.682;2022-11-15T09:25:45;10.64;93.83
75217;HTU21D;63800;51.972;5.682;2022-11-15T09:28:10;10.63;93.49
75217;HTU21D;63800;51.972;5.682;2022-11-15T09:30:36;10.65;93.19
75217;HTU21D;63800;51.972;5.682;2022-11-15T09:33:11;10.59;93.34
75217;HTU21D;63800;51.972;5.682;2022-11-15T09:35:37;10.59;91.36
75217;HTU21D;63800;51.972;5.682;2022-11-15T09:38:03;10.53;91.61
75217;HTU21D;63800;51.972;5.682;2022-11-15T09:40:31;10.63;91.60
75217;HTU21D;63800;51.972;5.682;2022-11-15T09:43:28;10.74;92.13
75217;HTU21D;63800;51.972;5.682;2022-11-15T09:46:37;10.59;90.21
75217;HTU21D;63800;51.972;5.682;2022-11-15T09:49:07;10.68;90.47
75217;HTU21D;63800;51.972;5.682;2022-11-15T09:51:39;10.75;89.92
75217;HTU21D;63800;51.972;5.682;2022-11-15T09:59:40;10.84;88.81
75217;HTU21D;63800;51.972;5.682;2022-11-15T10:04:33;11.01;88.14
75217;HTU21D;63800;51.972;5.682;2022-11-15T10:07:18;10.98;88.31
75217;HTU21D;63800;51.972;5.682;2022-11-15T10:09:53;10.95;87.38
75217;HTU21D;63800;51.972;5.682;2022-11-15T10:12:20;10.99;88.59
75217;HTU21D;63800;51.972;5.682;2022-11-15T10:14:46;11.03;88.02
75217;HTU21D;63800;51.972;5.682;2022-11-15T10:17:29;10.96;87.73
75217;HTU21D;63800;51.972;5.682;2022-11-15T10:20:13;10.90;88.54
75217;HTU21D;63800;51.972;5.682;2022-11-15T10:22:44;10.90;88.38
75217;HTU21D;63800;51.972;5.682;2022-11-15T10:25:14;11.12;86.59
75217;HTU21D;63800;51.972;5.682;2022-11-15T10:27:41;11.41;83.84
75217;HTU21D;63800;51.972;5.682;2022-11-15T10:30:14;11.23;84.33
75217;HTU21D;63800;51.972;5.682;2022-11-15T10:32:40;11.20;83.64
75217;HTU21D;63800;51.972;5.682;2022-11-15T10:35:28;11.17;82.96
75217;HTU21D;63800;51.972;5.682;2022-11-15T10:38:09;11.05;83.47
75217;HTU21D;63800;51.972;5.682;2022-11-15T10:40:35;11.34;84.52
75217;HTU21D;63800;51.972;5.682;2022-11-15T10:43:14;11.71;82.04
75217;HTU21D;63800;51.972;5.682;2022-11-15T10:45:40;11.63;80.98
75217;HTU21D;63800;51.972;5.682;2022-11-15T10:48:21;12.06;80.43
75217;HTU21D;63800;51.972;5.682;2022-11-15T10:50:48;12.40;77.66
75217;HTU21D;63800;51.972;5.682;2022-11-15T10:55:54;12.11;77.58
75217;HTU21D;63800;51.972;5.682;2022-11-15T11:01:22;12.42;75.12
75217;HTU21D;63800;51.972;5.682;2022-11-15T11:04:07;12.19;76.16
75217;HTU21D;63800;51.972;5.682;2022-11-15T11:06:50;12.61;76.74
75217;HTU21D;63800;51.972;5.682;2022-11-15T11:09:32;12.77;74.16
75217;HTU21D;63800;51.972;5.682;2022-11-15T11:11:59;12.50;76.09
75217;HTU21D;63800;51.972;5.682;2022-11-15T11:14:27;12.26;75.03
75217;HTU21D;63800;51.972;5.682;2022-11-15T11:23:33;12.64;72.21
75217;HTU21D;63800;51.972;5.682;2022-11-15T11:25:33;13.50;70.04
75217;HTU21D;63800;51.972;5.682;2022-11-15T11:33:34;14.14;67.67
75217;HTU21D;63800;51.972;5.682;2022-11-15T11:36:26;14.32;67.40
75217;HTU21D;63800;51.972;5.682;2022-11-15T11:41:50;13.88;67.28
75217;HTU21D;63800;51.972;5.682;2022-11-15T11:44:34;14.11;64.27
75217;HTU21D;63800;51.972;5.682;2022-11-15T11:47:14;13.31;66.48
75217;HTU21D;63800;51.972;5.682;2022-11-15T11:49:51;13.80;66.76
75217;HTU21D;63800;51.972;5.682;2022-11-15T11:52:27;15.58;63.37
75217;HTU21D;63800;51.972;5.682;2022-11-15T12:00:03;16.27;59.24
75217;HTU21D;63800;51.972;5.682;2022-11-15T12:02:33;16.64;56.82
75217;HTU21D;63800;51.972;5.682;2022-11-15T12:05:13;16.58;57.48
75217;HTU21D;63800;51.972;5.682;2022-11-15T12:07:39;16.85;54.77
75217;HTU21D;63800;51.972;5.682;2022-11-15T12:10:16;17.96;54.05
75217;HTU21D;63800;51.972;5.682;2022-11-15T12:13:28;15.63;58.44
75217;HTU21D;63800;51.972;5.682;2022-11-15T12:15:32;15.76;55.90
75217;HTU21D;63800;51.972;5.682;2022-11-15T12:18:01;15.86;58.25
75217;HTU21D;63800;51.972;5.682;2022-11-15T12:20:30;15.92;59.51
75217;HTU21D;63800;51.972;5.682;2022-11-15T12:28:17;15.87;57.26
75217;HTU21D;63800;51.972;5.682;2022-11-15T12:30:49;16.61;57.16
75217;HTU21D;63800;51.972;5.682;2022-11-15T12:33:37;16.72;55.55
75217;HTU21D;63800;51.972;5.682;2022-11-15T12:41:24;17.32;52.50
75217;HTU21D;63800;51.972;5.682;2022-11-15T12:43:50;17.34;54.39
75217;HTU21D;63800;51.972;5.682;2022-11-15T12:49:00;16.88;55.29
75217;HTU21D;63800;51.972;5.682;2022-11-15T13:02:28;14.82;57.88
75217;HTU21D;63800;51.972;5.682;2022-11-15T13:07:55;14.28;61.97
75217;HTU21D;63800;51.972;5.682;2022-11-15T13:10:29;14.73;62.46
75217;HTU21D;63800;51.972;5.682;2022-11-15T13:12:57;15.31;60.04
75217;HTU21D;63800;51.972;5.682;2022-11-15T13:17:56;16.59;55.05
75217;HTU21D;63800;51.972;5.682;2022-11-15T13:20:27;15.21;56.68
75217;HTU21D;63800;51.972;5.682;2022-11-15T13:23:02;15.66;58.60
75217;HTU21D;63800;51.972;5.682;2022-11-15T13:33:47;14.93;59.25
75217;HTU21D;63800;51.972;5.682;2022-11-15T13:36:19;14.55;62.61
75217;HTU21D;63800;51.972;5.682;2022-11-15T13:41:34;13.99;63.46
75217;HTU21D;63800;51.972;5.682;2022-11-15T13:44:01;13.68;65.84
75217;HTU21D;63800;51.972;5.682;2022-11-15T13:46:30;13.16;63.95
75217;HTU21D;63800;51.972;5.682;2022-11-15T13:49:04;13.24;65.38
75217;HTU21D;63800;51.972;5.682;2022-11-15T13:51:32;13.15;64.99
75217;HTU21D;63800;51.972;5.682;2022-11-15T13:54:09;12.82;66.69
75217;HTU21D;63800;51.972;5.682;2022-11-15T13:56:40;12.92;67.50
75217;HTU21D;63800;51.972;5.682;2022-11-15T13:59:20;12.64;67.00
75217;HTU21D;63800;51.972;5.682;2022-11-15T14:01:49;12.71;67.75
75217;HTU21D;63800;51.972;5.682;2022-11-15T14:04:19;12.63;67.72
75217;HTU21D;63800;51.972;5.682;2022-11-15T14:06:49;12.69;67.52
75217;HTU21D;63800;51.972;5.682;2022-11-15T14:11:56;12.26;67.36
75217;HTU21D;63800;51.972;5.682;2022-11-15T14:14:24;12.15;68.65
75217;HTU21D;63800;51.972;5.682;2022-11-15T14:16:55;12.15;68.32
75217;HTU21D;63800;51.972;5.682;2022-11-15T14:22:18;12.31;68.81
75217;HTU21D;63800;51.972;5.682;2022-11-15T14:25:18;12.23;70.06
75217;HTU21D;63800;51.972;5.682;2022-11-15T14:28:09;12.19;68.48
75217;HTU21D;63800;51.972;5.682;2022-11-15T14:30:34;12.16;69.53
75217;HTU21D;63800;51.972;5.682;2022-11-15T14:33:00;12.13;69.54
75217;HTU21D;63800;51.972;5.682;2022-11-15T14:35:26;11.82;71.01
75217;HTU21D;63800;51.972;5.682;2022-11-15T14:37:51;11.92;69.45
75217;HTU21D;63800;51.972;5.682;2022-11-15T14:40:19;11.89;70.81
75217;HTU21D;63800;51.972;5.682;2022-11-15T14:42:46;11.87;70.28
75217;HTU21D;63800;51.972;5.682;2022-11-15T14:45:17;11.91;70.44
75217;HTU21D;63800;51.972;5.682;2022-11-15T14:47:43;12.02;70.50
75217;HTU21D;63800;51.972;5.682;2022-11-15T14:50:17;11.93;69.80
75217;HTU21D;63800;51.972;5.682;2022-11-15T14:52:43;11.90;69.78
75217;HTU21D;63800;51.972;5.682;2022-11-15T14:55:24;11.82;69.36
75217;HTU21D;63800;51.972;5.682;2022-11-15T14:57:50;11.77;69.68
75217;HTU21D;63800;51.972;5.682;2022-11-15T15:00:16;11.70;70.63
75217;HTU21D;63800;51.972;5.682;2022-11-15T15:02:43;11.83;70.04
75217;HTU21D;63800;51.972;5.682;2022-11-15T15:05:31;11.70;71.71
75217;HTU21D;63800;51.972;5.682;2022-11-15T15:07:57;11.82;69.52
75217;HTU21D;63800;51.972;5.682;2022-11-15T15:10:24;11.71;70.20
75217;HTU21D;63800;51.972;5.682;2022-11-15T15:12:50;11.72;70.09
75217;HTU21D;63800;51.972;5.682;2022-11-15T15:15:29;11.71;70.35
75217;HTU21D;63800;51.972;5.682;2022-11-15T15:17:56;11.73;70.83
75217;HTU21D;63800;51.972;5.682;2022-11-15T15:20:21;11.72;70.94
75217;HTU21D;63800;51.972;5.682;2022-11-15T15:22:47;11.72;71.00
75217;HTU21D;63800;51.972;5.682;2022-11-15T15:25:28;11.70;69.46
75217;HTU21D;63800;51.972;5.682;2022-11-15T15:27:55;11.69;70.02
75217;HTU21D;63800;51.972;5.682;2022-11-15T15:30:22;11.68;69.94
75217;HTU21D;63800;51.972;5.682;2022-11-15T15:32:47;11.57;70.13
75217;HTU21D;63800;51.972;5.682;2022-11-15T15:35:14;11.51;70.48
75217;HTU21D;63800;51.972;5.682;2022-11-15T15:37:40;11.57;70.16
75217;HTU21D;63800;51.972;5.682;2022-11-15T15:40:16;11.56;69.42
75217;HTU21D;63800;51.972;5.682;2022-11-15T15:42:43;11.55;69.11
75217;HTU21D;63800;51.972;5.682;2022-11-15T15:45:09;11.55;70.06
75217;HTU21D;63800;51.972;5.682;2022-11-15T15:47:34;11.55;69.29
75217;HTU21D;63800;51.972;5.682;2022-11-15T15:50:00;11.57;69.71
75217;HTU21D;63800;51.972;5.682;2022-11-15T15:52:25;11.53;69.30
75217;HTU21D;63800;51.972;5.682;2022-11-15T15:54:51;11.52;69.75
75217;HTU21D;63800;51.972;5.682;2022-11-15T15:57:16;11.51;69.71
75217;HTU21D;63800;51.972;5.682;2022-11-15T15:59:42;11.58;70.74
75217;HTU21D;63800;51.972;5.682;2022-11-15T16:02:12;11.56;70.45
75217;HTU21D;63800;51.972;5.682;2022-11-15T16:04:38;11.56;70.03
75217;HTU21D;63800;51.972;5.682;2022-11-15T16:07:03;11.46;70.61
75217;HTU21D;63800;51.972;5.682;2022-11-15T16:09:29;11.42;70.74
75217;HTU21D;63800;51.972;5.682;2022-11-15T16:12:13;11.47;70.19
75217;HTU21D;63800;51.972;5.682;2022-11-15T16:14:41;11.42;71.68
75217;HTU21D;63800;51.972;5.682;2022-11-15T16:17:11;11.43;71.24
75217;HTU21D;63800;51.972;5.682;2022-11-15T16:19:41;11.47;71.29
75217;HTU21D;63800;51.972;5.682;2022-11-15T16:22:07;11.52;70.96
75217;HTU21D;63800;51.972;5.682;2022-11-15T16:24:32;11.47;71.06
75217;HTU21D;63800;51.972;5.682;2022-11-15T16:26:58;11.52;71.74
75217;HTU21D;63800;51.972;5.682;2022-11-15T16:29:23;11.44;71.64
75217;HTU21D;63800;51.972;5.682;2022-11-15T16:31:48;11.42;72.63
75217;HTU21D;63800;51.972;5.682;2022-11-15T16:34:14;11.42;73.13
75217;HTU21D;63800;51.972;5.682;2022-11-15T16:36:39;11.44;73.06
75217;HTU21D;63800;51.972;5.682;2022-11-15T16:39:05;11.48;72.87
75217;HTU21D;63800;51.972;5.682;2022-11-15T16:41:31;11.55;73.56
75217;HTU21D;63800;51.972;5.682;2022-11-15T16:43:56;11.49;73.25
75217;HTU21D;63800;51.972;5.682;2022-11-15T16:46:23;11.55;73.40
75217;HTU21D;63800;51.972;5.682;2022-11-15T16:48:49;11.44;73.70
75217;HTU21D;63800;51.972;5.682;2022-11-15T16:51:15;11.45;73.73
75217;HTU21D;63800;51.972;5.682;2022-11-15T16:53:41;11.39;73.87
75217;HTU21D;63800;51.972;5.682;2022-11-15T16:56:27;11.49;73.99
75217;HTU21D;63800;51.972;5.682;2022-11-15T16:58:54;11.44;74.46
75217;HTU21D;63800;51.972;5.682;2022-11-15T17:01:24;11.39;75.07
75217;HTU21D;63800;51.972;5.682;2022-11-15T17:03:50;11.43;74.43
75217;HTU21D;63800;51.972;5.682;2022-11-15T17:06:16;11.47;74.54
75217;HTU21D;63800;51.972;5.682;2022-11-15T17:08:45;11.45;76.83
75217;HTU21D;63800;51.972;5.682;2022-11-15T17:11:20;11.47;76.11
75217;HTU21D;63800;51.972;5.682;2022-11-15T17:13:46;11.41;77.79